createdAt,value
2022-10-20T08:10:06.434Z,7.87
2022-10-20T08:12:52.248Z,7.87
2022-10-20T08:15:50.629Z,7.74
2022-10-20T08:21:37.764Z,7.89
2022-10-20T08:24:23.262Z,7.90
2022-10-20T08:27:08.810Z,7.88
2022-10-20T08:30:06.161Z,7.89
2022-10-20T08:33:00.692Z,7.93
2022-10-20T08:35:46.742Z,8.00
2022-10-20T08:38:31.996Z,7.96
2022-10-20T08:41:18.280Z,7.85
2022-10-20T08:44:05.846Z,7.62
2022-10-20T08:46:55.566Z,7.56
2022-10-20T08:49:49.804Z,7.52
2022-10-20T08:52:36.705Z,7.62
2022-10-20T08:55:24.242Z,7.59
2022-10-20T08:58:09.915Z,7.52
2022-10-20T09:00:57.141Z,7.54
2022-10-20T09:03:47.669Z,7.63
2022-10-20T09:06:34.982Z,7.58
2022-10-20T09:09:21.170Z,7.63
2022-10-20T09:12:07.318Z,7.65
2022-10-20T09:14:55.493Z,7.67
2022-10-20T09:17:40.890Z,7.69
2022-10-20T09:20:36.837Z,7.59
2022-10-20T09:23:40.090Z,7.54
2022-10-20T09:26:54.623Z,7.69
2022-10-20T09:29:56.845Z,7.63
2022-10-20T09:32:55.055Z,7.63
2022-10-20T09:35:54.698Z,7.56
2022-10-20T09:38:46.775Z,7.45
2022-10-20T09:41:42.177Z,7.45
2022-10-20T09:44:41.436Z,7.40
2022-10-20T09:47:35.366Z,7.37
2022-10-20T09:50:39.770Z,7.40
2022-10-20T09:53:48.701Z,7.35
2022-10-20T09:56:50.933Z,7.42
2022-10-20T09:59:54.403Z,7.36
2022-10-20T10:02:43.232Z,7.24
2022-10-20T10:05:35.816Z,7.17
2022-10-20T10:08:21.474Z,7.18
2022-10-20T10:11:22.707Z,7.16
2022-10-20T10:14:11.673Z,7.03
2022-10-20T10:17:01.611Z,7.11
2022-10-20T10:19:55.401Z,7.05
2022-10-20T10:22:42.161Z,7.18
2022-10-20T10:25:41.201Z,7.22
2022-10-20T10:28:44.866Z,7.40
2022-10-20T10:31:41.163Z,7.39
2022-10-20T10:34:32.823Z,7.46
2022-10-20T10:40:06.695Z,7.42
2022-10-20T10:43:31.490Z,7.37
2022-10-20T10:46:28.747Z,7.30
2022-10-20T10:49:54.211Z,7.25
2022-10-20T10:53:03.972Z,7.15
2022-10-20T10:56:11.963Z,7.10
2022-10-20T10:59:12.104Z,7.04
2022-10-20T11:02:36.975Z,7.04
2022-10-20T11:05:29.973Z,7.06
2022-10-20T11:08:54.643Z,6.98
2022-10-20T11:12:10.065Z,6.92
2022-10-20T11:15:25.068Z,6.91
2022-10-20T11:18:29.158Z,6.93
2022-10-20T11:21:15.280Z,6.91
2022-10-20T11:24:17.839Z,6.89
2022-10-20T11:27:05.847Z,6.93
2022-10-20T11:30:19.511Z,7.08
2022-10-20T11:33:42.775Z,7.05
2022-10-20T11:36:37.882Z,7.07
2022-10-20T11:39:27.344Z,7.01
2022-10-20T11:42:19.716Z,7.05
2022-10-20T11:45:07.254Z,7.04
2022-10-20T11:48:00.102Z,7.04
2022-10-20T11:50:52.722Z,7.07
2022-10-20T11:54:24.103Z,7.15
2022-10-20T11:57:25.421Z,7.14
2022-10-20T12:00:47.244Z,7.10
2022-10-20T12:03:42.650Z,7.02
2022-10-20T12:06:47.001Z,7.10
2022-10-20T12:09:44.801Z,7.10
2022-10-20T12:12:48.637Z,7.05
2022-10-20T12:15:45.686Z,7.09
2022-10-20T12:18:50.300Z,7.05
2022-10-20T12:22:13.789Z,7.08
2022-10-20T12:25:00.684Z,7.13
2022-10-20T12:27:52.768Z,7.12
2022-10-20T12:30:58.523Z,7.24
2022-10-20T12:33:59.947Z,7.24
2022-10-20T12:36:51.450Z,7.28
2022-10-20T12:39:39.844Z,7.25
2022-10-20T12:42:31.092Z,7.20
2022-10-20T12:45:26.073Z,7.23
2022-10-20T12:48:18.333Z,7.24
2022-10-20T12:51:05.812Z,7.22
2022-10-20T12:53:51.953Z,7.12
2022-10-20T12:56:40.104Z,7.18
2022-10-20T12:59:47.667Z,7.21
2022-10-20T13:02:36.163Z,7.23
2022-10-20T13:05:27.389Z,7.17
2022-10-20T13:08:12.924Z,7.26
2022-10-20T13:10:58.617Z,7.26
2022-10-20T13:13:44.755Z,7.22
2022-10-20T13:16:37.300Z,7.14
2022-10-20T13:19:28.629Z,7.18
2022-10-20T13:22:14.952Z,7.18
2022-10-20T13:25:00.273Z,7.11
2022-10-20T13:27:48.911Z,6.93
2022-10-20T13:30:40.116Z,6.82
2022-10-20T13:33:58.827Z,6.79
2022-10-20T13:37:13.903Z,6.68
2022-10-20T13:40:11.833Z,6.57
2022-10-20T13:43:19.364Z,6.52
2022-10-20T13:46:07.881Z,6.46
2022-10-20T13:49:18.002Z,6.40
2022-10-20T13:52:15.104Z,6.28
2022-10-20T13:55:13.544Z,6.26
2022-10-20T13:58:09.330Z,6.21
2022-10-20T14:00:56.190Z,6.12
2022-10-20T14:03:42.860Z,6.12
2022-10-20T14:06:48.830Z,6.10
2022-10-20T14:09:45.254Z,6.04
2022-10-20T14:12:40.115Z,6.02
2022-10-20T14:15:27.267Z,5.97
2022-10-20T14:18:22.883Z,5.96
2022-10-20T14:21:19.163Z,5.89
2022-10-20T14:24:07.301Z,5.83
2022-10-20T14:26:55.654Z,5.83
2022-10-20T14:29:42.712Z,5.79
2022-10-20T14:32:37.949Z,5.78
2022-10-20T14:35:30.689Z,5.82
2022-10-20T14:38:34.187Z,5.84
2022-10-20T14:41:20.261Z,5.80
2022-10-20T14:44:12.934Z,5.85
2022-10-20T14:47:05.395Z,5.79
2022-10-20T14:49:58.011Z,5.71
2022-10-20T14:52:53.660Z,5.70
2022-10-20T14:55:51.644Z,5.63
2022-10-20T14:58:53.284Z,5.69
2022-10-20T15:01:50.674Z,5.50
2022-10-20T15:04:48.418Z,5.52
2022-10-20T15:07:40.957Z,5.45
2022-10-20T15:10:27.976Z,5.32
2022-10-20T15:13:13.881Z,5.13
2022-10-20T15:16:00.390Z,5.02
2022-10-20T15:18:47.892Z,4.98
2022-10-20T15:21:33.221Z,4.91
2022-10-20T15:24:18.963Z,4.92
2022-10-20T15:27:04.810Z,4.81
2022-10-20T15:29:51.292Z,4.70
2022-10-20T15:32:37.346Z,4.58
2022-10-20T15:35:30.570Z,4.49
2022-10-20T15:38:15.925Z,4.28
2022-10-20T15:43:53.242Z,4.04
2022-10-20T15:46:39.342Z,4.01
2022-10-20T15:49:24.890Z,3.96
2022-10-20T15:52:10.517Z,3.88
2022-10-20T15:54:55.835Z,3.83
2022-10-20T15:57:41.467Z,3.68
2022-10-20T16:00:29.703Z,3.64
2022-10-20T16:06:27.527Z,3.54
2022-10-20T16:09:16.412Z,3.47
2022-10-20T16:12:03.412Z,3.37
2022-10-20T16:14:54.079Z,3.41
2022-10-20T16:17:40.429Z,3.45
2022-10-20T16:20:26.770Z,3.42
2022-10-20T16:23:14.239Z,3.41
2022-10-20T16:26:01.843Z,3.48
2022-10-20T16:28:47.335Z,3.49
2022-10-20T16:31:36.602Z,3.53
2022-10-20T16:34:25.413Z,3.58
2022-10-20T16:37:10.887Z,3.60
2022-10-20T16:39:57.995Z,3.57
2022-10-20T16:42:43.960Z,3.57
2022-10-20T16:45:29.870Z,3.58
2022-10-20T16:48:19.967Z,3.61
2022-10-20T16:51:05.318Z,3.62
2022-10-20T16:53:50.686Z,3.66
2022-10-20T16:56:38.315Z,3.63
2022-10-20T16:59:23.879Z,3.68
2022-10-20T17:02:09.265Z,3.73
2022-10-20T17:04:55.119Z,3.62
2022-10-20T17:07:40.672Z,3.65
2022-10-20T17:10:26.846Z,3.60
2022-10-20T17:13:12.591Z,3.63
2022-10-20T17:15:57.998Z,3.60
2022-10-20T17:18:43.395Z,3.56
2022-10-20T17:21:30.239Z,3.63
2022-10-20T17:24:16.155Z,3.60
2022-10-20T17:27:01.769Z,3.66
2022-10-20T17:29:47.188Z,3.63
2022-10-20T17:32:32.485Z,3.74
2022-10-20T17:35:20.635Z,3.70
2022-10-20T17:38:05.981Z,3.78
2022-10-20T17:40:56.999Z,3.87
2022-10-20T17:43:42.564Z,3.80
2022-10-20T17:46:31.612Z,3.76
2022-10-20T17:49:17.050Z,3.70
2022-10-20T17:52:02.510Z,3.71
2022-10-20T17:54:47.972Z,3.74
2022-10-20T17:57:34.091Z,3.67
2022-10-20T18:00:31.738Z,3.70
2022-10-20T18:03:23.045Z,3.67
2022-10-20T18:06:08.456Z,3.60
2022-10-20T18:08:54.079Z,3.50
2022-10-20T18:11:43.715Z,3.54
2022-10-20T18:14:29.055Z,3.41
2022-10-20T18:17:14.589Z,3.40
2022-10-20T18:20:01.840Z,3.42
2022-10-20T18:22:47.913Z,3.40
2022-10-20T18:25:33.386Z,3.32
2022-10-20T18:28:19.321Z,3.42
2022-10-20T18:31:05.640Z,3.39
2022-10-20T18:33:51.547Z,3.40
2022-10-20T18:36:42.054Z,3.37
2022-10-20T18:39:32.001Z,3.43
2022-10-20T18:42:17.746Z,3.31
2022-10-20T18:45:03.458Z,3.28
2022-10-20T18:47:48.828Z,3.20
2022-10-20T18:50:34.312Z,3.08
2022-10-20T18:53:21.633Z,2.94
2022-10-20T18:56:27.515Z,2.93
2022-10-20T18:59:16.006Z,2.89
2022-10-20T19:02:02.342Z,2.82
2022-10-20T19:04:47.798Z,2.85
2022-10-20T19:07:33.452Z,2.90
2022-10-20T19:10:18.944Z,2.94
2022-10-20T19:13:04.513Z,2.92
2022-10-20T19:15:50.018Z,2.95
2022-10-20T19:18:35.415Z,2.98
2022-10-20T19:21:23.741Z,2.92
2022-10-20T19:24:12.254Z,2.92
2022-10-20T19:27:26.558Z,2.85
2022-10-20T19:30:15.069Z,2.81
2022-10-20T19:33:00.607Z,2.80
2022-10-20T19:35:46.118Z,2.76
2022-10-20T19:38:31.579Z,2.74
2022-10-20T19:41:17.217Z,2.68
2022-10-20T19:44:03.037Z,2.68
2022-10-20T19:46:49.988Z,2.54
2022-10-20T19:49:36.599Z,2.65
2022-10-20T19:52:23.195Z,2.58
2022-10-20T19:55:08.723Z,2.58
2022-10-20T19:57:56.633Z,2.64
2022-10-20T20:00:42.237Z,2.70
2022-10-20T20:03:27.890Z,2.65
2022-10-20T20:06:22.770Z,2.71
2022-10-20T20:09:11.008Z,2.79
2022-10-20T20:11:57.313Z,2.84
2022-10-20T20:14:42.646Z,2.79
2022-10-20T20:17:28.039Z,2.79
2022-10-20T20:20:13.521Z,2.78
2022-10-20T20:22:59.189Z,2.80
2022-10-20T20:25:44.817Z,2.80
2022-10-20T20:28:30.784Z,2.77
2022-10-20T20:31:26.847Z,2.85
2022-10-20T20:34:12.829Z,2.80
2022-10-20T20:36:58.373Z,2.81
2022-10-20T20:39:43.871Z,2.73
2022-10-20T20:42:29.515Z,2.85
2022-10-20T20:45:14.807Z,2.83
2022-10-20T20:48:00.188Z,2.83
2022-10-20T20:50:45.721Z,2.94
2022-10-20T20:56:21.931Z,2.91
2022-10-20T20:59:12.215Z,2.90
2022-10-20T21:01:57.824Z,2.75
2022-10-20T21:04:43.306Z,2.80
2022-10-20T21:07:28.922Z,2.79
2022-10-20T21:10:14.323Z,2.71
2022-10-20T21:12:59.993Z,2.69
2022-10-20T21:15:45.300Z,2.59
2022-10-20T21:18:31.001Z,2.68
2022-10-20T21:21:17.250Z,2.72
2022-10-20T21:24:03.081Z,2.78
2022-10-20T21:26:49.122Z,2.68
2022-10-20T21:29:34.983Z,2.67
2022-10-20T21:32:20.382Z,2.73
2022-10-20T21:35:05.749Z,2.69
2022-10-20T21:37:51.043Z,2.78
2022-10-20T21:40:36.640Z,2.82
2022-10-20T21:43:22.255Z,2.78
2022-10-20T21:46:09.443Z,2.80
2022-10-20T21:48:54.849Z,2.89
2022-10-20T21:51:46.064Z,2.90
2022-10-20T21:54:34.263Z,2.81
2022-10-20T21:57:19.569Z,2.88
2022-10-20T22:00:04.987Z,2.94
2022-10-20T22:02:53.764Z,2.98
2022-10-20T22:05:39.144Z,2.93
2022-10-20T22:08:25.091Z,2.97
2022-10-20T22:11:10.987Z,2.97
2022-10-20T22:13:56.447Z,2.89
2022-10-20T22:16:44.408Z,2.96
2022-10-20T22:19:35.781Z,3.02
2022-10-20T22:22:22.417Z,3.05
2022-10-20T22:25:07.872Z,3.05
2022-10-20T22:27:53.438Z,3.05
2022-10-20T22:30:39.183Z,3.10
2022-10-20T22:33:24.498Z,3.09
2022-10-20T22:36:12.322Z,2.99
2022-10-20T22:38:57.822Z,3.09
2022-10-20T22:41:43.246Z,3.11
2022-10-20T22:44:31.383Z,3.10
2022-10-20T22:47:16.698Z,2.98
2022-10-20T22:50:02.028Z,2.98
2022-10-20T22:52:49.686Z,2.79
2022-10-20T22:55:36.188Z,2.86
2022-10-20T22:58:22.153Z,2.80
2022-10-20T23:01:09.795Z,2.79
2022-10-20T23:03:56.178Z,2.79
2022-10-20T23:06:44.382Z,2.77
2022-10-20T23:09:31.611Z,2.71
2022-10-20T23:12:17.209Z,2.71
2022-10-20T23:15:02.653Z,2.70
2022-10-20T23:17:48.916Z,2.74
2022-10-20T23:20:34.696Z,2.73
2022-10-20T23:23:20.168Z,2.76
2022-10-20T23:26:11.435Z,2.73
2022-10-20T23:28:57.854Z,2.77
2022-10-20T23:31:43.231Z,2.72
2022-10-20T23:34:30.682Z,2.83
2022-10-20T23:37:16.074Z,2.79
2022-10-20T23:40:01.733Z,2.78
2022-10-20T23:42:49.626Z,2.73
2022-10-20T23:45:37.012Z,2.71
2022-10-20T23:48:24.271Z,2.69
2022-10-20T23:51:17.880Z,2.66
2022-10-20T23:54:03.390Z,2.57
2022-10-20T23:56:48.782Z,2.54
2022-10-20T23:59:35.378Z,2.62
